24  °C
Temperature
17  °C
  Dewpoint
   Humidity
Temp | Dewpoint | Humidity
14  km/h
Wind Speed
9  mph
Wind Speed
8  kts
Wind Speed
350°
Due North

Wind Speed
Partly Cloudy
Conditions
Pressure 1016.92 (hPa) - 30.03 (in)
Visibility 6.2 (mi) - 10.0 (km)

Current Conditions
LGNX
Location 6km (3.2mi)
Metar :LGNX 151150Z 35008KT 9999 FEW025 24/17 Q1017
Tue 15th October 14:50 pm

Airport
  Metar Aviation API Data Provided by https://www.checkwx.com/ CSS/SVG/PHP scripts by weather34.com © 2015-2019